Time;durP1;ratioP1;P1;durP2;ratioP2;P2;SDS_P1;SDS_P2;PMS_P1;PMS_P2;Temp;Humidity;BMP_temperature;BMP_pressure;BME280_temperature;BME280_humidity;BME280_pressure;Samples;Min_cycle;Max_cycle;Signal;HPM_P1;HPM_P2
2024/01/20 00:00:29;;;;;;;1.88;1.00;;;1.60;64.30;;;;;;5025530;28;20041;-75
2024/01/20 00:02:55;;;;;;;2.00;0.80;;;1.60;64.30;;;;;;5032474;28;20025;-75
2024/01/20 00:05:20;;;;;;;1.05;0.47;;;1.60;65.00;;;;;;5034258;28;20072;-75
2024/01/20 00:07:46;;;;;;;5.03;1.83;;;1.60;65.10;;;;;;5034649;28;20489;-75
2024/01/20 00:10:12;;;;;;;2.15;0.57;;;1.50;67.00;;;;;;5033027;28;20036;-75
2024/01/20 00:12:38;;;;;;;1.70;0.90;;;1.60;63.90;;;;;;5035020;28;20107;-77
2024/01/20 00:15:07;;;;;;;1.25;0.47;;;1.50;64.80;;;;;;5036037;28;20079;-75
2024/01/20 00:17:33;;;;;;;1.42;0.55;;;1.40;64.80;;;;;;5033827;28;20031;-75
2024/01/20 00:19:59;;;;;;;3.10;1.08;;;1.50;64.70;;;;;;5033987;28;20020;-75
2024/01/20 00:22:25;;;;;;;2.40;0.95;;;1.40;68.30;;;;;;5036075;28;20037;-74
2024/01/20 00:24:51;;;;;;;1.15;0.40;;;1.20;66.70;;;;;;5035489;28;20102;-75
2024/01/20 00:27:17;;;;;;;1.70;0.60;;;1.40;64.20;;;;;;5032343;28;20036;-75
2024/01/20 00:29:42;;;;;;;2.70;0.73;;;1.40;65.30;;;;;;5034846;28;20035;-75
2024/01/20 00:32:08;;;;;;;1.50;0.73;;;1.40;64.60;;;;;;5035208;28;20045;-75
2024/01/20 00:34:34;;;;;;;1.80;0.93;;;1.30;66.70;;;;;;5034008;28;20028;-75
2024/01/20 00:37:03;;;;;;;2.00;0.70;;;1.30;67.50;;;;;;5034222;28;20125;-75
2024/01/20 00:39:28;;;;;;;1.92;0.70;;;1.30;66.10;;;;;;5035465;28;20632;-75
2024/01/20 00:41:54;;;;;;;0.70;0.32;;;1.40;65.60;;;;;;5033587;28;20152;-75
2024/01/20 00:44:20;;;;;;;2.30;0.77;;;1.30;67.20;;;;;;5033657;28;20078;-75
2024/01/20 00:46:45;;;;;;;0.65;0.30;;;1.30;66.20;;;;;;5034628;28;20035;-75
2024/01/20 00:49:11;;;;;;;0.85;0.45;;;1.30;65.80;;;;;;5034526;28;20028;-75
2024/01/20 00:51:36;;;;;;;0.40;0.20;;;1.20;66.20;;;;;;5036055;28;21302;-75
2024/01/20 00:54:02;;;;;;;1.27;0.43;;;1.10;65.60;;;;;;5033326;28;20048;-75
2024/01/20 00:56:28;;;;;;;0.95;0.50;;;1.30;65.00;;;;;;5035846;28;20386;-74
2024/01/20 00:58:53;;;;;;;0.70;0.40;;;1.30;65.50;;;;;;5038544;28;20075;-75
2024/01/20 01:01:20;;;;;;;1.17;0.60;;;1.10;68.00;;;;;;5038459;28;20454;-75
2024/01/20 01:03:45;;;;;;;0.55;0.35;;;1.00;66.50;;;;;;5039430;28;20031;-74
2024/01/20 01:06:11;;;;;;;1.60;0.68;;;1.10;67.10;;;;;;5040249;28;20024;-74
2024/01/20 01:08:37;;;;;;;2.05;0.98;;;1.00;67.90;;;;;;5037967;28;20056;-74
2024/01/20 01:11:03;;;;;;;2.15;0.77;;;0.70;67.80;;;;;;5037662;28;20041;-74
2024/01/20 01:13:29;;;;;;;0.68;0.50;;;0.80;67.30;;;;;;5035656;28;20110;-75
2024/01/20 01:15:54;;;;;;;3.88;1.25;;;0.90;67.00;;;;;;5036094;28;20155;-75
2024/01/20 01:18:20;;;;;;;1.88;0.60;;;0.90;68.90;;;;;;5033996;28;20037;-75
2024/01/20 01:20:46;;;;;;;1.40;0.82;;;0.90;67.80;;;;;;5035038;28;20040;-75
2024/01/20 01:23:11;;;;;;;3.70;1.55;;;0.80;68.80;;;;;;5031998;28;20037;-74
2024/01/20 01:25:38;;;;;;;1.25;0.68;;;0.70;68.60;;;;;;5033425;28;20094;-75
2024/01/20 01:28:04;;;;;;;1.25;0.60;;;0.80;69.60;;;;;;5032518;28;20072;-75
2024/01/20 01:30:29;;;;;;;1.73;0.68;;;1.00;67.70;;;;;;5035818;28;20139;-75
2024/01/20 01:32:55;;;;;;;2.45;1.00;;;0.80;68.30;;;;;;5034410;28;20057;-75
2024/01/20 01:35:21;;;;;;;1.75;0.88;;;0.70;69.10;;;;;;5034710;28;20044;-75
2024/01/20 01:37:46;;;;;;;1.27;0.50;;;0.90;69.00;;;;;;5035217;28;20095;-74
2024/01/20 01:40:13;;;;;;;2.05;0.80;;;0.80;71.30;;;;;;5034792;28;20064;-75
2024/01/20 01:42:39;;;;;;;2.50;1.33;;;0.70;69.10;;;;;;5035166;28;20033;-75
2024/01/20 01:45:05;;;;;;;2.05;0.88;;;0.80;70.10;;;;;;5035060;28;20044;-75
2024/01/20 01:47:31;;;;;;;0.82;0.50;;;0.50;70.70;;;;;;5032947;28;20109;-75
2024/01/20 01:49:57;;;;;;;1.25;0.70;;;0.60;70.00;;;;;;5034893;28;20119;-75
2024/01/20 01:52:23;;;;;;;2.53;0.70;;;0.80;67.90;;;;;;5035536;28;20102;-75
2024/01/20 01:54:50;;;;;;;4.93;2.08;;;0.80;68.00;;;;;;5034628;28;20040;-75
2024/01/20 01:57:17;;;;;;;2.45;0.95;;;0.90;68.20;;;;;;5033989;28;20037;-75
2024/01/20 01:59:44;;;;;;;1.48;0.40;;;0.90;67.90;;;;;;5035735;28;20041;-74
2024/01/20 02:02:10;;;;;;;3.95;0.60;;;0.80;68.60;;;;;;5034170;28;20037;-75
2024/01/20 02:04:36;;;;;;;1.60;0.65;;;0.70;69.30;;;;;;5035106;28;21229;-75
2024/01/20 02:07:02;;;;;;;1.10;0.52;;;0.50;71.90;;;;;;5034761;28;20183;-75
2024/01/20 02:09:29;;;;;;;1.23;0.50;;;0.50;69.90;;;;;;5033143;28;20767;-75
2024/01/20 02:11:55;;;;;;;1.45;0.50;;;0.40;71.50;;;;;;5034523;28;20068;-75
2024/01/20 02:14:22;;;;;;;1.85;0.73;;;0.40;70.80;;;;;;5035869;28;20540;-75
2024/01/20 02:16:47;;;;;;;2.13;0.85;;;0.30;70.80;;;;;;5031557;28;20494;-74
2024/01/20 02:19:13;;;;;;;1.60;0.73;;;0.20;70.90;;;;;;5033755;28;20122;-75
2024/01/20 02:21:41;;;;;;;1.70;0.85;;;0.00;72.30;;;;;;5035737;28;20598;-74
2024/01/20 02:24:08;;;;;;;0.88;0.43;;;0.10;70.90;;;;;;5034445;28;20478;-74
2024/01/20 02:26:34;;;;;;;0.65;0.40;;;0.20;70.10;;;;;;5032483;28;20509;-76
2024/01/20 02:29:00;;;;;;;2.50;0.70;;;0.00;73.10;;;;;;5033922;28;20035;-76
2024/01/20 02:31:26;;;;;;;1.45;0.60;;;0.10;71.80;;;;;;5035705;28;20124;-76
2024/01/20 02:33:51;;;;;;;2.30;0.70;;;0.30;70.10;;;;;;5033878;28;20603;-76
2024/01/20 02:36:17;;;;;;;1.50;0.50;;;0.10;71.70;;;;;;5033575;28;20122;-76
2024/01/20 02:38:42;;;;;;;1.30;0.40;;;0.00;71.80;;;;;;5032291;28;20029;-76
2024/01/20 02:41:08;;;;;;;1.52;0.70;;;0.10;74.20;;;;;;5033443;28;20054;-76
2024/01/20 02:43:34;;;;;;;2.72;0.63;;;0.10;70.80;;;;;;5033637;28;20072;-75
2024/01/20 02:45:59;;;;;;;1.20;0.45;;;0.20;70.70;;;;;;5035281;28;20437;-75
2024/01/20 02:48:25;;;;;;;1.70;0.77;;;0.30;71.20;;;;;;5033370;28;20755;-75
2024/01/20 02:50:51;;;;;;;1.52;0.57;;;0.00;72.30;;;;;;5034318;28;20216;-75
2024/01/20 02:53:17;;;;;;;1.58;0.55;;;0.20;70.40;;;;;;5034540;28;20075;-76
2024/01/20 02:55:42;;;;;;;1.85;0.65;;;0.20;71.20;;;;;;5033755;28;20499;-75
2024/01/20 02:58:08;;;;;;;0.53;0.30;;;-0.10;72.70;;;;;;5033096;28;20041;-75
2024/01/20 03:00:34;;;;;;;2.28;0.50;;;-0.10;71.90;;;;;;5033725;28;20036;-76
2024/01/20 03:02:59;;;;;;;0.95;0.50;;;-0.20;74.60;;;;;;5032722;28;20485;-75
2024/01/20 03:05:25;;;;;;;0.93;0.60;;;-0.10;72.50;;;;;;5014464;28;20041;-76
2024/01/20 03:07:50;;;;;;;2.90;0.70;;;0.00;71.90;;;;;;5034135;28;20029;-76
2024/01/20 03:10:16;;;;;;;0.82;0.40;;;0.00;72.20;;;;;;5033458;28;20065;-76
2024/01/20 03:12:42;;;;;;;1.30;0.65;;;0.00;71.70;;;;;;5033520;28;20087;-75
2024/01/20 03:15:08;;;;;;;1.90;0.60;;;0.00;72.90;;;;;;5034596;28;20036;-75
2024/01/20 03:17:34;;;;;;;1.67;0.88;;;-0.20;75.30;;;;;;5030969;28;20036;-76
2024/01/20 03:20:00;;;;;;;1.10;0.63;;;-0.50;75.20;;;;;;5033348;28;20048;-76
2024/01/20 03:22:26;;;;;;;1.80;0.68;;;-0.30;75.00;;;;;;5034957;28;20044;-76
2024/01/20 03:24:51;;;;;;;1.90;0.82;;;-0.30;74.70;;;;;;5033630;28;20072;-75
2024/01/20 03:27:18;;;;;;;1.45;0.60;;;-0.40;73.90;;;;;;5031987;28;20494;-76
2024/01/20 03:29:44;;;;;;;1.30;0.50;;;-0.20;72.90;;;;;;5032639;28;20032;-76
2024/01/20 03:32:10;;;;;;;0.68;0.50;;;-0.20;73.00;;;;;;5033633;28;20041;-76
2024/01/20 03:34:36;;;;;;;1.25;0.50;;;-0.20;73.20;;;;;;5032329;28;20159;-75
2024/01/20 03:37:02;;;;;;;1.05;0.50;;;-0.40;73.60;;;;;;5031325;28;20540;-75
2024/01/20 03:39:28;;;;;;;1.33;0.47;;;-0.10;72.30;;;;;;5034126;28;20076;-76
2024/01/20 03:41:53;;;;;;;1.67;0.63;;;-0.20;72.60;;;;;;5032858;28;20064;-76
2024/01/20 03:44:19;;;;;;;0.93;0.43;;;-0.30;73.60;;;;;;5034436;28;20040;-76
2024/01/20 03:46:44;;;;;;;1.45;0.50;;;-0.30;73.40;;;;;;5032988;28;20577;-76
2024/01/20 03:49:10;;;;;;;0.60;0.45;;;-0.30;73.50;;;;;;5033458;28;20035;-76
2024/01/20 03:51:36;;;;;;;1.20;0.45;;;-0.10;71.60;;;;;;5032950;28;20045;-76
2024/01/20 03:54:04;;;;;;;0.57;0.30;;;-0.10;70.90;;;;;;5032758;28;20033;-76
2024/01/20 03:56:30;;;;;;;1.15;0.43;;;-0.10;72.10;;;;;;5034437;28;20170;-76
2024/01/20 03:58:55;;;;;;;0.87;0.30;;;-0.30;74.00;;;;;;5030521;28;20045;-75
2024/01/20 04:01:21;;;;;;;1.77;0.65;;;-0.40;73.10;;;;;;5031867;28;20033;-75
2024/01/20 04:03:47;;;;;;;1.25;0.50;;;-0.30;72.50;;;;;;5030625;28;20029;-76
2024/01/20 04:06:12;;;;;;;1.15;0.50;;;-0.40;73.20;;;;;;5027588;28;21079;-76
2024/01/20 04:08:38;;;;;;;1.55;0.57;;;-0.40;73.00;;;;;;5026403;28;20499;-75
2024/01/20 04:11:04;;;;;;;2.10;0.57;;;-0.30;73.00;;;;;;5028851;28;20049;-75
2024/01/20 04:13:29;;;;;;;1.70;0.57;;;-0.20;72.10;;;;;;5028794;28;20033;-75
2024/01/20 04:15:55;;;;;;;1.52;0.80;;;-0.10;72.60;;;;;;5027823;28;20477;-76
2024/01/20 04:18:21;;;;;;;3.38;0.60;;;-0.30;72.30;;;;;;5024413;28;20090;-75
2024/01/20 04:20:47;;;;;;;1.17;0.50;;;-0.30;72.70;;;;;;5025006;28;20061;-75
2024/01/20 04:23:13;;;;;;;2.38;0.70;;;-0.30;74.00;;;;;;5024939;28;20087;-75
2024/01/20 04:25:38;;;;;;;0.70;0.32;;;-0.60;76.40;;;;;;5029817;28;20037;-76
2024/01/20 04:28:04;;;;;;;1.92;0.70;;;-0.50;74.10;;;;;;5027968;28;20037;-75
2024/01/20 04:30:30;;;;;;;1.85;0.50;;;-0.50;74.40;;;;;;5028583;28;20084;-75
2024/01/20 04:32:55;;;;;;;1.77;0.70;;;-0.40;73.30;;;;;;5027289;28;20643;-76
2024/01/20 04:35:21;;;;;;;1.75;0.60;;;-0.40;74.30;;;;;;5024973;28;20491;-76
2024/01/20 04:37:46;;;;;;;2.00;0.70;;;-0.60;73.80;;;;;;5024474;28;20033;-74
2024/01/20 04:40:12;;;;;;;1.30;0.57;;;-0.40;73.20;;;;;;5026453;28;20055;-76
2024/01/20 04:42:38;;;;;;;1.05;0.50;;;-0.50;73.90;;;;;;5026817;28;20029;-76
2024/01/20 04:45:04;;;;;;;2.35;0.68;;;-0.50;73.60;;;;;;5025421;28;20037;-76
2024/01/20 04:47:32;;;;;;;0.93;0.43;;;-0.50;73.70;;;;;;5025376;28;20087;-76
2024/01/20 04:49:58;;;;;;;1.55;0.63;;;-0.60;74.40;;;;;;5028065;28;20068;-76
2024/01/20 04:52:23;;;;;;;1.80;0.80;;;-0.60;74.30;;;;;;5030813;28;20130;-75
2024/01/20 04:54:49;;;;;;;1.38;0.60;;;-0.50;73.80;;;;;;5028589;28;20056;-76
2024/01/20 04:57:15;;;;;;;1.75;0.50;;;-0.60;74.50;;;;;;5029098;28;20208;-76
2024/01/20 04:59:40;;;;;;;1.17;0.60;;;-0.70;74.60;;;;;;5028778;28;20646;-76
2024/01/20 05:02:06;;;;;;;3.53;0.80;;;-0.80;75.70;;;;;;5029688;28;20592;-76
2024/01/20 05:04:32;;;;;;;1.48;0.60;;;-0.70;74.30;;;;;;5032513;28;20161;-75
2024/01/20 05:06:57;;;;;;;1.45;0.70;;;-0.70;74.30;;;;;;5030643;28;20908;-74
2024/01/20 05:09:23;;;;;;;1.70;0.80;;;-0.80;75.10;;;;;;5030471;28;20520;-75
2024/01/20 05:11:48;;;;;;;2.33;0.68;;;-0.80;75.70;;;;;;5033565;28;20057;-76
2024/01/20 05:14:14;;;;;;;1.08;0.50;;;-1.10;78.00;;;;;;5030649;28;20029;-76
2024/01/20 05:16:40;;;;;;;2.75;1.02;;;-0.90;75.70;;;;;;5030676;28;20043;-75
2024/01/20 05:19:05;;;;;;;1.65;0.60;;;-0.90;77.20;;;;;;5030640;28;20033;-75
2024/01/20 05:21:31;;;;;;;1.97;0.57;;;-0.80;76.20;;;;;;5031622;28;20052;-75
2024/01/20 05:23:57;;;;;;;1.50;0.63;;;-1.00;77.00;;;;;;5031519;28;20112;-75
2024/01/20 05:26:23;;;;;;;0.93;0.40;;;-0.80;74.70;;;;;;5031900;28;20044;-75
2024/01/20 05:28:49;;;;;;;0.60;0.30;;;-1.00;77.00;;;;;;5030655;28;20025;-75
2024/01/20 05:31:15;;;;;;;0.63;0.30;;;-1.00;78.10;;;;;;5030962;28;20105;-75
2024/01/20 05:33:40;;;;;;;0.97;0.50;;;-1.10;77.30;;;;;;5031203;28;20032;-76
2024/01/20 05:36:10;;;;;;;1.70;0.77;;;-1.20;78.40;;;;;;5027342;28;20025;-76
2024/01/20 05:38:35;;;;;;;0.70;0.47;;;-1.00;76.40;;;;;;5026764;28;20033;-76
2024/01/20 05:41:01;;;;;;;4.33;1.03;;;-1.00;76.90;;;;;;5028436;28;20725;-76
2024/01/20 05:43:27;;;;;;;5.80;2.33;;;-0.90;76.10;;;;;;5027960;28;20513;-76
2024/01/20 05:45:52;;;;;;;2.40;0.60;;;-1.00;75.80;;;;;;5027208;28;20036;-76
2024/01/20 05:48:18;;;;;;;1.60;0.40;;;-0.90;75.60;;;;;;5027038;28;20568;-76
2024/01/20 05:50:43;;;;;;;1.33;0.60;;;-1.00;75.50;;;;;;5028882;28;20049;-75
2024/01/20 05:53:09;;;;;;;2.07;0.83;;;-1.00;75.50;;;;;;5025651;28;20441;-76
2024/01/20 05:55:35;;;;;;;2.73;0.63;;;-0.90;75.20;;;;;;5028645;28;20469;-76
2024/01/20 05:58:00;;;;;;;1.23;0.57;;;-1.00;75.90;;;;;;5028220;28;20094;-75
2024/01/20 06:00:26;;;;;;;1.53;0.60;;;-1.10;76.20;;;;;;5027979;28;20029;-76
2024/01/20 06:02:52;;;;;;;0.57;0.40;;;-1.00;76.80;;;;;;5025641;28;20449;-75
2024/01/20 06:05:18;;;;;;;0.60;0.37;;;-1.10;77.70;;;;;;5029622;28;20394;-76
2024/01/20 06:07:43;;;;;;;1.53;0.63;;;-1.20;77.50;;;;;;5026593;28;20064;-75
2024/01/20 06:10:09;;;;;;;2.00;0.70;;;-1.20;76.70;;;;;;5025621;28;20152;-76
2024/01/20 06:12:35;;;;;;;1.00;0.53;;;-1.20;75.10;;;;;;5023603;28;20252;-76
2024/01/20 06:15:00;;;;;;;0.80;0.43;;;-1.10;75.20;;;;;;5021316;28;20415;-76
2024/01/20 06:17:26;;;;;;;2.47;0.90;;;-0.90;73.90;;;;;;5007557;28;20422;-76
2024/01/20 06:19:53;;;;;;;6.23;2.73;;;-1.00;74.60;;;;;;5026996;28;20252;-75
2024/01/20 06:22:18;;;;;;;1.40;0.80;;;-1.00;75.10;;;;;;5027469;28;20472;-75
2024/01/20 06:24:44;;;;;;;1.53;0.70;;;-0.90;74.10;;;;;;5026401;28;20033;-75
2024/01/20 06:27:09;;;;;;;1.30;0.53;;;-0.80;74.20;;;;;;5027577;28;20025;-76
2024/01/20 06:29:41;;;;;;;1.10;0.57;;;-0.90;74.40;;;;;;5008007;28;20033;-76
2024/01/20 06:32:07;;;;;;;1.13;0.50;;;-1.10;75.10;;;;;;5027077;28;20282;-76
2024/01/20 06:34:32;;;;;;;1.25;0.60;;;-1.00;74.80;;;;;;5026538;28;20631;-76
2024/01/20 06:36:58;;;;;;;1.10;0.40;;;-1.10;77.50;;;;;;5026690;28;20649;-75
2024/01/20 06:39:23;;;;;;;2.70;1.03;;;-1.30;78.40;;;;;;5027195;28;20094;-75
2024/01/20 06:41:50;;;;;;;1.60;0.67;;;-1.30;76.20;;;;;;5026833;28;20145;-76
2024/01/20 06:44:16;;;;;;;5.10;4.53;;;-1.10;75.90;;;;;;5026294;28;20048;-76
2024/01/20 06:46:42;;;;;;;5.20;3.27;;;-1.10;76.50;;;;;;5027028;28;20037;-76
2024/01/20 06:49:07;;;;;;;3.47;1.10;;;-1.20;77.30;;;;;;5026798;28;20029;-76
2024/01/20 06:51:33;;;;;;;1.73;0.70;;;-1.20;75.50;;;;;;5026680;28;20116;-75
2024/01/20 06:53:59;;;;;;;1.63;0.80;;;-1.20;76.90;;;;;;5025930;28;20090;-75
2024/01/20 06:56:25;;;;;;;1.20;0.57;;;-1.20;77.50;;;;;;5026496;28;20037;-75
2024/01/20 06:58:54;;;;;;;1.75;0.85;;;-1.30;77.00;;;;;;5027619;28;20091;-75
2024/01/20 07:01:20;;;;;;;2.92;1.02;;;-1.20;76.00;;;;;;5026407;28;20937;-75
2024/01/20 07:03:46;;;;;;;1.57;0.67;;;-1.20;76.60;;;;;;5025954;28;20100;-75
2024/01/20 07:06:12;;;;;;;1.23;0.55;;;-1.10;76.00;;;;;;5027043;28;20526;-75
2024/01/20 07:08:38;;;;;;;2.47;0.70;;;-1.10;76.30;;;;;;5027166;28;20044;-75
2024/01/20 07:11:10;;;;;;;2.60;0.85;;;-1.10;74.90;;;;;;5024479;28;20584;-75
2024/01/20 07:13:37;;;;;;;1.53;0.67;;;-1.00;75.10;;;;;;5026629;28;20033;-75
2024/01/20 07:16:13;;;;;;;1.37;0.73;;;-1.20;75.40;;;;;;5024513;28;20535;-76
2024/01/20 07:18:39;;;;;;;2.67;1.08;;;-1.10;75.90;;;;;;5029986;28;20117;-76
2024/01/20 07:21:06;;;;;;;1.93;0.70;;;-1.00;75.50;;;;;;5026564;28;20025;-75
2024/01/20 07:23:31;;;;;;;1.07;0.43;;;-1.20;76.80;;;;;;5027245;28;20037;-78
2024/01/20 07:26:00;;;;;;;1.80;0.60;;;-1.20;75.90;;;;;;5028671;28;20040;-76
2024/01/20 07:28:27;;;;;;;1.55;0.75;;;-1.10;74.40;;;;;;5026425;28;20542;-76
2024/01/20 07:30:53;;;;;;;3.40;1.33;;;-1.20;75.00;;;;;;5024363;28;20104;-75
2024/01/20 07:33:19;;;;;;;1.97;0.67;;;-1.10;75.70;;;;;;5023426;28;20037;-75
2024/01/20 07:35:45;;;;;;;2.83;0.90;;;-1.20;77.50;;;;;;5024182;28;20043;-75
2024/01/20 07:38:11;;;;;;;1.97;0.97;;;-1.20;76.30;;;;;;5023250;28;20603;-75
2024/01/20 07:40:37;;;;;;;1.40;0.60;;;-1.20;76.60;;;;;;5024391;28;20056;-76
2024/01/20 07:43:03;;;;;;;2.30;0.90;;;-1.20;75.30;;;;;;5025106;28;20040;-76
2024/01/20 07:45:30;;;;;;;1.33;0.63;;;-1.20;75.20;;;;;;5024588;28;20098;-77
2024/01/20 07:47:56;;;;;;;2.10;0.60;;;-1.10;74.80;;;;;;5026356;28;20037;-78
2024/01/20 07:50:21;;;;;;;2.77;0.57;;;-1.10;75.80;;;;;;5024853;28;20114;-76
2024/01/20 07:52:47;;;;;;;2.53;0.80;;;-1.20;75.60;;;;;;5025013;28;20156;-77
2024/01/20 07:55:13;;;;;;;3.60;0.90;;;-1.20;76.50;;;;;;5025220;28;20068;-77
2024/01/20 07:57:39;;;;;;;1.93;0.97;;;-1.20;76.00;;;;;;5025977;28;20494;-78
2024/01/20 08:00:06;;;;;;;1.93;0.70;;;-1.30;77.40;;;;;;5023355;28;20037;-75
2024/01/20 08:02:32;;;;;;;2.20;0.90;;;-1.30;77.60;;;;;;5025251;28;20481;-76
2024/01/20 08:04:57;;;;;;;2.23;1.00;;;-1.40;77.70;;;;;;5024112;28;20037;-75
2024/01/20 08:07:23;;;;;;;3.53;1.13;;;-1.30;78.10;;;;;;5026467;28;20548;-74
2024/01/20 08:09:48;;;;;;;2.53;0.87;;;-1.30;77.80;;;;;;5027922;28;20478;-74
2024/01/20 08:12:14;;;;;;;2.23;0.90;;;-1.30;77.30;;;;;;5025967;28;20045;-74
2024/01/20 08:14:40;;;;;;;1.30;0.60;;;-1.20;75.30;;;;;;5024753;28;20125;-73
2024/01/20 08:17:05;;;;;;;2.17;0.93;;;-1.10;75.00;;;;;;5025609;28;20044;-74
2024/01/20 08:19:31;;;;;;;1.98;0.85;;;-1.10;75.00;;;;;;5025861;28;20033;-74
2024/01/20 08:21:57;;;;;;;3.33;1.00;;;-1.20;75.70;;;;;;5024507;28;20041;-74
2024/01/20 08:24:22;;;;;;;2.80;1.20;;;-1.30;76.40;;;;;;5029302;28;20058;-74
2024/01/20 08:26:48;;;;;;;2.77;1.07;;;-1.30;75.80;;;;;;5027179;28;20035;-74
2024/01/20 08:29:14;;;;;;;2.03;0.70;;;-1.20;77.00;;;;;;5028439;28;20041;-74
2024/01/20 08:31:39;;;;;;;2.10;0.83;;;-1.20;75.20;;;;;;5027600;28;20048;-74
2024/01/20 08:34:05;;;;;;;1.97;0.80;;;-1.20;75.60;;;;;;5027284;28;20091;-75
2024/01/20 08:36:31;;;;;;;3.13;1.50;;;-1.10;75.60;;;;;;5028626;28;20025;-75
2024/01/20 08:38:56;;;;;;;3.10;0.80;;;-1.10;74.90;;;;;;5027512;28;20035;-75
2024/01/20 08:41:22;;;;;;;2.67;0.90;;;-1.10;75.30;;;;;;5025687;28;20136;-74
2024/01/20 08:43:48;;;;;;;4.47;1.10;;;-1.10;75.50;;;;;;5028152;28;20029;-74
2024/01/20 08:46:13;;;;;;;2.27;0.90;;;-1.00;75.40;;;;;;5029065;28;20072;-75
2024/01/20 08:48:39;;;;;;;2.70;0.75;;;-0.90;77.80;;;;;;5028007;28;21343;-74
2024/01/20 08:51:05;;;;;;;1.63;0.80;;;-0.90;74.20;;;;;;5028073;28;20045;-74
2024/01/20 08:53:32;;;;;;;2.90;1.50;;;-0.90;74.70;;;;;;5031673;28;20411;-75
2024/01/20 08:55:58;;;;;;;2.07;1.07;;;-0.90;74.80;;;;;;5031443;28;20021;-75
2024/01/20 08:58:24;;;;;;;7.87;4.03;;;-1.00;74.20;;;;;;5031011;28;20037;-74
2024/01/20 09:00:50;;;;;;;7.88;4.30;;;-1.00;74.70;;;;;;5029535;28;20041;-75
2024/01/20 09:03:16;;;;;;;8.07;4.47;;;-1.00;75.30;;;;;;5029596;28;20043;-75
2024/01/20 09:05:42;;;;;;;6.63;2.73;;;-1.10;76.30;;;;;;5032251;28;20482;-75
2024/01/20 09:08:09;;;;;;;4.90;2.00;;;-1.00;76.70;;;;;;5031919;28;20098;-75
2024/01/20 09:10:36;;;;;;;4.80;1.63;;;-1.00;77.60;;;;;;5029467;28;20041;-75
2024/01/20 09:13:02;;;;;;;3.25;1.48;;;-0.90;78.30;;;;;;5033198;28;20119;-75
2024/01/20 09:15:28;;;;;;;3.00;1.27;;;-0.90;78.20;;;;;;5032298;28;20128;-75
2024/01/20 09:17:54;;;;;;;3.95;0.98;;;-1.10;78.10;;;;;;5031963;28;21787;-75
2024/01/20 09:20:20;;;;;;;4.07;1.60;;;-0.90;76.90;;;;;;5030830;28;20735;-75
2024/01/20 09:22:46;;;;;;;3.17;1.23;;;-0.80;76.00;;;;;;5030687;28;20044;-75
2024/01/20 09:25:12;;;;;;;3.97;1.00;;;-1.00;77.00;;;;;;5031875;28;20031;-75
2024/01/20 09:27:37;;;;;;;1.95;0.80;;;-0.90;75.70;;;;;;5030943;28;20244;-75
2024/01/20 09:30:05;;;;;;;3.40;1.10;;;-1.10;75.30;;;;;;5030920;28;20076;-75
2024/01/20 09:32:33;;;;;;;2.47;1.00;;;-1.00;75.10;;;;;;5029551;28;20034;-74
2024/01/20 09:34:59;;;;;;;2.15;0.93;;;-1.00;76.80;;;;;;5031330;28;20467;-75
2024/01/20 09:37:25;;;;;;;2.25;1.10;;;-0.90;75.10;;;;;;5032536;28;20124;-75
2024/01/20 09:39:51;;;;;;;1.53;0.77;;;-1.00;75.90;;;;;;5030427;28;20067;-75
2024/01/20 09:42:17;;;;;;;3.28;1.15;;;-0.90;75.50;;;;;;5031384;28;20028;-75
2024/01/20 09:44:43;;;;;;;1.90;0.80;;;-0.90;75.30;;;;;;5031520;28;20072;-75
2024/01/20 09:47:11;;;;;;;2.75;0.90;;;-0.80;75.40;;;;;;5030648;28;20028;-75
2024/01/20 09:49:37;;;;;;;2.83;1.10;;;-0.80;76.50;;;;;;5030854;28;20032;-75
2024/01/20 09:52:09;;;;;;;2.70;1.08;;;-0.80;75.90;;;;;;5032286;28;20071;-75
2024/01/20 09:54:46;;;;;;;2.55;0.95;;;-0.90;75.40;;;;;;5029101;28;20063;-75
2024/01/20 09:57:11;;;;;;;1.35;0.73;;;-0.60;74.10;;;;;;5030266;28;20038;-76
2024/01/20 09:59:41;;;;;;;2.85;0.90;;;-0.50;74.00;;;;;;5028139;28;21354;-75
2024/01/20 10:02:10;;;;;;;2.40;1.08;;;-0.50;74.20;;;;;;5030326;28;20033;-75
2024/01/20 10:04:42;;;;;;;2.58;1.08;;;-0.50;73.20;;;;;;5029154;28;20037;-75
2024/01/20 10:07:08;;;;;;;2.03;0.98;;;-0.50;73.90;;;;;;5030035;28;20383;-75
2024/01/20 10:09:33;;;;;;;2.15;1.02;;;-0.30;73.80;;;;;;5029568;28;20049;-75
2024/01/20 10:11:59;;;;;;;2.13;0.77;;;-0.30;74.80;;;;;;5030526;28;20052;-75
2024/01/20 10:14:25;;;;;;;1.58;0.70;;;-0.40;75.80;;;;;;5030115;28;20423;-74
2024/01/20 10:16:50;;;;;;;1.77;0.80;;;-0.40;73.80;;;;;;5032051;28;20135;-74
2024/01/20 10:19:16;;;;;;;1.67;0.80;;;-0.40;74.20;;;;;;4998614;28;20502;-75
2024/01/20 10:21:42;;;;;;;3.40;1.20;;;-0.20;74.10;;;;;;5030306;28;20044;-74
2024/01/20 10:24:08;;;;;;;3.15;1.10;;;-0.30;73.30;;;;;;5032079;28;20112;-74
2024/01/20 10:26:44;;;;;;;3.33;1.00;;;-0.30;74.40;;;;;;5029549;28;20115;-74
2024/01/20 10:29:10;;;;;;;2.65;0.95;;;-0.20;74.00;;;;;;5029498;28;20490;-75
2024/01/20 10:31:35;;;;;;;1.70;0.70;;;-0.10;73.80;;;;;;5028446;28;20048;-74
2024/01/20 10:34:01;;;;;;;2.28;0.70;;;-0.10;73.40;;;;;;5031074;28;20035;-76
2024/01/20 10:36:28;;;;;;;2.03;0.87;;;-0.10;73.50;;;;;;5029264;28;20029;-75
2024/01/20 10:38:56;;;;;;;3.13;1.17;;;-0.10;73.70;;;;;;5029271;28;20118;-75
2024/01/20 10:41:24;;;;;;;3.28;1.08;;;0.20;73.10;;;;;;5032347;28;20057;-75
2024/01/20 10:44:00;;;;;;;1.85;0.88;;;0.30;73.30;;;;;;5029404;28;20120;-75
2024/01/20 10:46:29;;;;;;;2.55;1.20;;;0.20;73.70;;;;;;5027802;28;20021;-75
2024/01/20 10:48:59;;;;;;;3.88;1.00;;;0.50;73.00;;;;;;5030178;28;21327;-75
2024/01/20 10:51:27;;;;;;;2.33;0.98;;;0.70;72.60;;;;;;5029837;28;20073;-75
2024/01/20 10:53:54;;;;;;;2.25;1.40;;;0.90;71.90;;;;;;5027447;28;20117;-75
2024/01/20 10:56:21;;;;;;;4.75;2.05;;;0.80;71.50;;;;;;5027969;28;20041;-75
2024/01/20 10:59:01;;;;;;;3.45;1.90;;;1.00;71.20;;;;;;5030403;28;20037;-74
2024/01/20 11:01:28;;;;;;;2.85;1.50;;;1.10;70.70;;;;;;5029407;28;20186;-75
2024/01/20 11:03:53;;;;;;;3.38;1.50;;;1.20;71.70;;;;;;5026500;28;20021;-75
2024/01/20 11:06:20;;;;;;;4.30;2.20;;;1.30;72.70;;;;;;5029765;28;20126;-75
2024/01/20 11:08:51;;;;;;;2.28;1.17;;;1.30;72.40;;;;;;5030830;28;20488;-75
2024/01/20 11:11:18;;;;;;;5.07;1.15;;;1.20;70.40;;;;;;5027935;28;20565;-75
2024/01/20 11:13:47;;;;;;;4.68;1.98;;;1.40;71.00;;;;;;5027643;28;20043;-75
2024/01/20 11:16:20;;;;;;;4.22;1.98;;;1.60;72.00;;;;;;5029651;28;20131;-75
2024/01/20 11:18:46;;;;;;;4.88;2.28;;;2.00;71.70;;;;;;5028956;28;20127;-75
2024/01/20 11:21:15;;;;;;;4.78;2.42;;;2.00;71.90;;;;;;5029769;28;20510;-75
2024/01/20 11:24:04;;;;;;;4.75;2.10;;;1.90;71.50;;;;;;5029569;28;20655;-75
2024/01/20 11:26:37;;;;;;;5.35;1.73;;;1.90;72.70;;;;;;5026701;28;20055;-75
2024/01/20 11:29:05;;;;;;;2.30;1.20;;;1.90;71.70;;;;;;5029646;28;20040;-75
2024/01/20 11:31:31;;;;;;;2.55;1.30;;;1.90;71.00;;;;;;5030552;28;20037;-75
2024/01/20 11:34:02;;;;;;;3.00;0.95;;;2.00;70.70;;;;;;5028411;28;20043;-75
2024/01/20 11:36:31;;;;;;;3.65;1.10;;;2.00;70.10;;;;;;5027540;28;20048;-76
2024/01/20 11:38:58;;;;;;;2.17;1.00;;;2.00;70.30;;;;;;5029192;28;20033;-75
2024/01/20 11:41:24;;;;;;;2.47;1.00;;;2.30;71.60;;;;;;5029839;28;20114;-75
2024/01/20 11:43:49;;;;;;;2.15;0.90;;;2.50;70.60;;;;;;5028513;28;20045;-75
2024/01/20 11:46:16;;;;;;;2.58;1.10;;;2.30;69.20;;;;;;5030480;28;20064;-75
2024/01/20 11:48:42;;;;;;;3.17;1.15;;;2.30;70.00;;;;;;5028479;28;20056;-75
2024/01/20 11:51:09;;;;;;;2.90;1.20;;;2.30;69.10;;;;;;5027942;28;20041;-75
2024/01/20 11:53:34;;;;;;;3.67;0.93;;;2.30;68.50;;;;;;5029308;28;20033;-75
2024/01/20 11:56:02;;;;;;;2.25;1.02;;;2.40;68.80;;;;;;5026693;28;20474;-74
2024/01/20 11:58:30;;;;;;;5.60;1.58;;;2.50;69.10;;;;;;5025852;28;20033;-75
2024/01/20 12:00:57;;;;;;;2.90;1.08;;;2.50;68.20;;;;;;5027999;28;20518;-75
2024/01/20 12:03:23;;;;;;;2.25;1.17;;;2.50;68.20;;;;;;5028270;28;20047;-74
2024/01/20 12:05:50;;;;;;;2.58;1.10;;;2.40;67.40;;;;;;5025081;28;20033;-75
2024/01/20 12:08:16;;;;;;;1.58;0.77;;;2.60;69.20;;;;;;5027494;28;20038;-74
2024/01/20 12:10:42;;;;;;;1.13;0.60;;;2.50;67.00;;;;;;5029324;28;20116;-74
2024/01/20 12:13:10;;;;;;;2.72;1.02;;;2.70;68.70;;;;;;5028541;28;20029;-75
2024/01/20 12:15:36;;;;;;;2.20;1.02;;;2.80;68.10;;;;;;5029097;28;20037;-75
2024/01/20 12:18:02;;;;;;;2.92;1.20;;;2.80;68.40;;;;;;5025079;28;20538;-74
2024/01/20 12:20:28;;;;;;;2.30;0.80;;;2.80;66.70;;;;;;5026657;28;20030;-74
2024/01/20 12:23:00;;;;;;;2.70;0.88;;;2.90;67.30;;;;;;5028985;28;21186;-74
2024/01/20 12:25:26;;;;;;;2.28;0.93;;;2.80;67.40;;;;;;5027103;28;20585;-75
2024/01/20 12:27:52;;;;;;;2.05;0.88;;;3.00;68.00;;;;;;5025216;28;20045;-75
2024/01/20 12:30:18;;;;;;;2.42;0.80;;;2.90;67.80;;;;;;5028202;28;20394;-75
2024/01/20 12:32:44;;;;;;;1.55;0.85;;;2.90;68.20;;;;;;5026173;28;20033;-75
2024/01/20 12:35:10;;;;;;;2.33;0.93;;;3.10;68.90;;;;;;5028017;28;20025;-74
2024/01/20 12:37:35;;;;;;;1.50;0.70;;;3.10;67.40;;;;;;5028922;28;20970;-75
2024/01/20 12:40:03;;;;;;;2.35;0.80;;;3.10;67.90;;;;;;5028650;28;20048;-75
2024/01/20 12:42:28;;;;;;;2.28;0.90;;;3.10;67.90;;;;;;5025414;28;20033;-74
2024/01/20 12:44:55;;;;;;;2.55;1.02;;;3.10;68.30;;;;;;5027310;28;20037;-75